Aérodrome :
LOGIN :

S'inscrire | Disclaimer

   EN    FR    IT 

 










Légende :    VFR   VFR Marginal   IFR   IFR Intensif   IFR Très Intensif
Visi : 
Plafond : 
>= 8 km
>= 3000ft
5 à 8 km
1000 à 3000 ft
1500m à 5 km
500 à 1000 ft
800 à 1500m
200 à 500 ft
< 800m
< 200 ft
Symboles :   Orages  Brouillard  Fortes neiges  Fortes précipitations  Vent > 20 kt
SIGMETs :   Divers  Orages  Givrage  Turbulence  Onde Orograph.  Cendres Volcan.






- Altitude de l'aérodrome : 412 ft
- Code IATA : ORE


LFOJ - Orleans

DERNIER METAR :
  • 040300Z AUTO 02002KT CAVOK 03/01 Q1020 TEMPO 4000 BR

METARs EXPIRÉS :
  • 040230Z AUTO 01002KT CAVOK 04/03 Q1020 TEMPO 4000 BR
  • 040200Z AUTO 01002KT CAVOK 04/02 Q1020 NOSIG
  • 040130Z AUTO 03002KT CAVOK 05/02 Q1020 NOSIG
  • 040100Z AUTO 02002KT CAVOK 06/04 Q1020 NOSIG
  • 040030Z AUTO 02003KT CAVOK 07/04 Q1020 NOSIG

TAF TAF LFOJ
Valide du 04 à 03h jusqu'au 05 à 03h UTC


040200Z 0403/0503 VRB02KT CAVOK
PROB30
TEMPO 0404/0407 4000 BR
BECMG 0407/0409 12010KT



MET'MAP, la Météo Aéronautique d'un coup d'oeil ! - Copyright ORBIFLY Décembre 2007 - Disclaimer

ORBIFLY MET'MAP TEAM :

Programmation & Développement : Alexandra Zaïnal
Sur une idée originale de : Baudouin d'Aumeries
Assistance à la programmation : Marc-Olivier Méhu
Soutien technique & logistique : Manuel Goepfert

Contact : metmap@orbifly.com




SOURCES & CREDITS :

   NOAA